FXMM/MSU METAR and TAF weather

Enter ICAO airport designator
Station Type Date Time Source
FXMM METAR 2022/05/23 14:00 UTC NOAA

FXMM 231400Z 23012KT 9999 FEW030 18/06 Q1022 NOSIG


Station Type Date Time Source
FXMM Decoded METAR 2022/05/23 14:00 UTC NOAA

Maseru / Moshoeshoe, Lesotho (FXMM) 29-27S 027-33E
May 23, 2022 - 10:00 AM EDT / 2022.05.23 1400 UTC
Wind: from the SW (230 degrees) at 14 MPH (12 KT):0
Visibility: greater than 7 mile(s):0
Sky conditions: mostly clear
Temperature: 64 F (18 C)
Dew Point: 42 F (6 C)
Relative Humidity: 45%
Pressure (altimeter): 30.18 in. Hg (1022 hPa)
ob: FXMM 231400Z 23012KT 9999 FEW030 18/06 Q1022 NOSIG
cycle: 14

Station Type Date Time Source
FXMM TAF 2022/05/15 09:36 UTC NOAA

TAF TAF FXMM 150700Z 1509/1521 00000KT CAVOK
BECMG 1509/1511 18005KT
BECMG 1514/1516 00000KT

Example: see airport list